sensor_id;sensor_type;location;lat;lon;timestamp;P1;durP1;ratioP1;P2;durP2;ratioP2
3911;SDS011;1971;51.778;10.330;2023-02-12T00:02:02;13.80;;;10.80;;
3911;SDS011;1971;51.778;10.330;2023-02-12T00:04:34;19.80;;;11.00;;
3911;SDS011;1971;51.778;10.330;2023-02-12T00:07:05;14.23;;;11.47;;
3911;SDS011;1971;51.778;10.330;2023-02-12T00:09:37;13.33;;;9.03;;
3911;SDS011;1971;51.778;10.330;2023-02-12T00:12:07;11.33;;;10.13;;
3911;SDS011;1971;51.778;10.330;2023-02-12T00:14:38;12.30;;;8.20;;
3911;SDS011;1971;51.778;10.330;2023-02-12T00:17:08;9.60;;;7.90;;
3911;SDS011;1971;51.778;10.330;2023-02-12T00:19:38;10.70;;;7.60;;
3911;SDS011;1971;51.778;10.330;2023-02-12T00:22:08;8.93;;;6.60;;
3911;SDS011;1971;51.778;10.330;2023-02-12T00:24:41;16.07;;;9.17;;
3911;SDS011;1971;51.778;10.330;2023-02-12T00:27:10;10.03;;;7.70;;
3911;SDS011;1971;51.778;10.330;2023-02-12T00:29:40;12.27;;;9.20;;
3911;SDS011;1971;51.778;10.330;2023-02-12T00:32:11;9.77;;;8.13;;
3911;SDS011;1971;51.778;10.330;2023-02-12T00:34:44;12.47;;;9.63;;
3911;SDS011;1971;51.778;10.330;2023-02-12T00:37:15;11.30;;;8.70;;
3911;SDS011;1971;51.778;10.330;2023-02-12T00:39:48;13.03;;;9.50;;
3911;SDS011;1971;51.778;10.330;2023-02-12T00:42:18;13.33;;;10.20;;
3911;SDS011;1971;51.778;10.330;2023-02-12T00:44:48;11.53;;;8.70;;
3911;SDS011;1971;51.778;10.330;2023-02-12T00:47:18;11.40;;;8.27;;
3911;SDS011;1971;51.778;10.330;2023-02-12T00:49:48;11.43;;;7.63;;
3911;SDS011;1971;51.778;10.330;2023-02-12T00:52:18;12.67;;;9.97;;
3911;SDS011;1971;51.778;10.330;2023-02-12T00:54:51;11.30;;;9.60;;
3911;SDS011;1971;51.778;10.330;2023-02-12T00:57:21;12.27;;;8.40;;
3911;SDS011;1971;51.778;10.330;2023-02-12T00:59:51;83.57;;;20.40;;
3911;SDS011;1971;51.778;10.330;2023-02-12T01:02:22;14.23;;;9.73;;
3911;SDS011;1971;51.778;10.330;2023-02-12T01:04:52;14.13;;;9.23;;
3911;SDS011;1971;51.778;10.330;2023-02-12T01:07:22;14.47;;;6.93;;
3911;SDS011;1971;51.778;10.330;2023-02-12T01:09:55;20.47;;;10.33;;
3911;SDS011;1971;51.778;10.330;2023-02-12T01:12:28;16.07;;;8.90;;
3911;SDS011;1971;51.778;10.330;2023-02-12T01:14:58;65.27;;;14.80;;
3911;SDS011;1971;51.778;10.330;2023-02-12T01:17:28;16.63;;;9.97;;
3911;SDS011;1971;51.778;10.330;2023-02-12T01:19:58;12.30;;;8.30;;
3911;SDS011;1971;51.778;10.330;2023-02-12T01:22:28;19.90;;;10.20;;
3911;SDS011;1971;51.778;10.330;2023-02-12T01:25:03;11.47;;;8.10;;
3911;SDS011;1971;51.778;10.330;2023-02-12T01:27:33;13.33;;;7.93;;
3911;SDS011;1971;51.778;10.330;2023-02-12T01:30:04;23.37;;;10.43;;
3911;SDS011;1971;51.778;10.330;2023-02-12T01:32:37;19.43;;;8.27;;
3911;SDS011;1971;51.778;10.330;2023-02-12T01:35:09;14.93;;;7.60;;
3911;SDS011;1971;51.778;10.330;2023-02-12T01:37:40;38.60;;;13.17;;
3911;SDS011;1971;51.778;10.330;2023-02-12T01:40:14;36.47;;;9.20;;
3911;SDS011;1971;51.778;10.330;2023-02-12T01:42:47;13.40;;;6.83;;
3911;SDS011;1971;51.778;10.330;2023-02-12T01:48:23;11.63;;;8.50;;
3911;SDS011;1971;51.778;10.330;2023-02-12T01:50:55;48.97;;;16.20;;
3911;SDS011;1971;51.778;10.330;2023-02-12T01:53:29;36.07;;;13.13;;
3911;SDS011;1971;51.778;10.330;2023-02-12T01:56:06;21.67;;;8.27;;
3911;SDS011;1971;51.778;10.330;2023-02-12T01:58:40;12.93;;;6.73;;
3911;SDS011;1971;51.778;10.330;2023-02-12T02:01:14;8.10;;;5.87;;
3911;SDS011;1971;51.778;10.330;2023-02-12T02:03:51;19.67;;;9.47;;
3911;SDS011;1971;51.778;10.330;2023-02-12T02:06:26;9.37;;;6.20;;
3911;SDS011;1971;51.778;10.330;2023-02-12T02:09:00;10.00;;;7.07;;
3911;SDS011;1971;51.778;10.330;2023-02-12T02:11:34;12.70;;;7.77;;
3911;SDS011;1971;51.778;10.330;2023-02-12T02:14:17;7.90;;;5.13;;
3911;SDS011;1971;51.778;10.330;2023-02-12T02:23:28;9.93;;;5.77;;
3911;SDS011;1971;51.778;10.330;2023-02-12T02:26:21;14.50;;;7.57;;
3911;SDS011;1971;51.778;10.330;2023-02-12T02:29:13;9.87;;;6.40;;
3911;SDS011;1971;51.778;10.330;2023-02-12T02:31:56;6.30;;;4.47;;
3911;SDS011;1971;51.778;10.330;2023-02-12T02:34:33;7.23;;;4.17;;
3911;SDS011;1971;51.778;10.330;2023-02-12T02:37:11;6.80;;;4.53;;
3911;SDS011;1971;51.778;10.330;2023-02-12T02:39:47;9.37;;;6.17;;
3911;SDS011;1971;51.778;10.330;2023-02-12T02:42:22;7.60;;;5.10;;
3911;SDS011;1971;51.778;10.330;2023-02-12T02:44:58;22.80;;;6.60;;
3911;SDS011;1971;51.778;10.330;2023-02-12T02:47:36;9.03;;;6.53;;
3911;SDS011;1971;51.778;10.330;2023-02-12T02:50:11;18.60;;;8.40;;
3911;SDS011;1971;51.778;10.330;2023-02-12T02:52:45;18.00;;;7.30;;
3911;SDS011;1971;51.778;10.330;2023-02-12T02:55:19;27.60;;;8.60;;
3911;SDS011;1971;51.778;10.330;2023-02-12T02:57:54;44.13;;;10.37;;
3911;SDS011;1971;51.778;10.330;2023-02-12T03:00:28;65.33;;;14.10;;
3911;SDS011;1971;51.778;10.330;2023-02-12T03:03:09;55.90;;;13.70;;
3911;SDS011;1971;51.778;10.330;2023-02-12T03:05:45;88.90;;;16.87;;
3911;SDS011;1971;51.778;10.330;2023-02-12T03:08:19;61.60;;;10.40;;
3911;SDS011;1971;51.778;10.330;2023-02-12T03:10:56;109.47;;;17.40;;
3911;SDS011;1971;51.778;10.330;2023-02-12T03:13:32;49.73;;;9.50;;
3911;SDS011;1971;51.778;10.330;2023-02-12T03:16:06;105.40;;;15.40;;
3911;SDS011;1971;51.778;10.330;2023-02-12T03:18:43;253.13;;;28.97;;
3911;SDS011;1971;51.778;10.330;2023-02-12T03:21:19;77.70;;;9.80;;
3911;SDS011;1971;51.778;10.330;2023-02-12T03:23:56;86.43;;;15.20;;
3911;SDS011;1971;51.778;10.330;2023-02-12T03:26:33;245.40;;;23.83;;
3911;SDS011;1971;51.778;10.330;2023-02-12T03:29:09;286.57;;;29.07;;
3911;SDS011;1971;51.778;10.330;2023-02-12T03:31:50;222.83;;;26.77;;
3911;SDS011;1971;51.778;10.330;2023-02-12T03:34:32;199.47;;;22.73;;
3911;SDS011;1971;51.778;10.330;2023-02-12T03:37:12;159.23;;;18.43;;
3911;SDS011;1971;51.778;10.330;2023-02-12T03:39:49;150.20;;;23.53;;
3911;SDS011;1971;51.778;10.330;2023-02-12T03:42:26;197.20;;;24.77;;
3911;SDS011;1971;51.778;10.330;2023-02-12T03:45:03;62.00;;;11.63;;
3911;SDS011;1971;51.778;10.330;2023-02-12T03:47:41;131.30;;;21.87;;
3911;SDS011;1971;51.778;10.330;2023-02-12T03:50:20;136.60;;;15.10;;
3911;SDS011;1971;51.778;10.330;2023-02-12T03:52:56;188.50;;;19.10;;
3911;SDS011;1971;51.778;10.330;2023-02-12T03:55:26;126.80;;;17.10;;
3911;SDS011;1971;51.778;10.330;2023-02-12T03:57:57;187.77;;;18.47;;
3911;SDS011;1971;51.778;10.330;2023-02-12T04:00:29;69.93;;;12.10;;
3911;SDS011;1971;51.778;10.330;2023-02-12T04:02:59;132.03;;;16.57;;
3911;SDS011;1971;51.778;10.330;2023-02-12T04:05:32;296.53;;;26.23;;
3911;SDS011;1971;51.778;10.330;2023-02-12T04:08:03;261.43;;;26.90;;
3911;SDS011;1971;51.778;10.330;2023-02-12T04:10:37;130.00;;;15.00;;
3911;SDS011;1971;51.778;10.330;2023-02-12T04:13:18;249.00;;;22.43;;
3911;SDS011;1971;51.778;10.330;2023-02-12T04:16:01;197.93;;;23.30;;
3911;SDS011;1971;51.778;10.330;2023-02-12T04:18:41;104.13;;;14.80;;
3911;SDS011;1971;51.778;10.330;2023-02-12T04:21:20;123.00;;;15.33;;
3911;SDS011;1971;51.778;10.330;2023-02-12T04:24:08;88.93;;;8.50;;
3911;SDS011;1971;51.778;10.330;2023-02-12T04:26:48;167.33;;;20.40;;
3911;SDS011;1971;51.778;10.330;2023-02-12T04:29:25;103.47;;;9.00;;
3911;SDS011;1971;51.778;10.330;2023-02-12T04:32:03;225.53;;;19.40;;
3911;SDS011;1971;51.778;10.330;2023-02-12T04:34:38;183.07;;;14.50;;
3911;SDS011;1971;51.778;10.330;2023-02-12T04:37:19;170.60;;;12.43;;
3911;SDS011;1971;51.778;10.330;2023-02-12T04:39:52;173.30;;;14.57;;
3911;SDS011;1971;51.778;10.330;2023-02-12T04:42:24;189.23;;;15.80;;
3911;SDS011;1971;51.778;10.330;2023-02-12T04:44:54;203.30;;;15.90;;
3911;SDS011;1971;51.778;10.330;2023-02-12T04:47:24;135.83;;;11.93;;
3911;SDS011;1971;51.778;10.330;2023-02-12T04:49:58;109.33;;;11.67;;
3911;SDS011;1971;51.778;10.330;2023-02-12T04:52:30;62.20;;;8.40;;
3911;SDS011;1971;51.778;10.330;2023-02-12T04:55:01;120.00;;;13.67;;
3911;SDS011;1971;51.778;10.330;2023-02-12T04:57:31;152.40;;;14.93;;
3911;SDS011;1971;51.778;10.330;2023-02-12T05:00:02;69.23;;;9.53;;
3911;SDS011;1971;51.778;10.330;2023-02-12T05:02:33;144.60;;;12.67;;
3911;SDS011;1971;51.778;10.330;2023-02-12T05:05:04;70.30;;;7.83;;
3911;SDS011;1971;51.778;10.330;2023-02-12T05:07:37;103.50;;;9.63;;
3911;SDS011;1971;51.778;10.330;2023-02-12T05:10:08;87.13;;;8.60;;
3911;SDS011;1971;51.778;10.330;2023-02-12T05:12:39;143.47;;;13.13;;
3911;SDS011;1971;51.778;10.330;2023-02-12T05:15:09;115.73;;;11.87;;
3911;SDS011;1971;51.778;10.330;2023-02-12T05:17:39;113.47;;;10.60;;
3911;SDS011;1971;51.778;10.330;2023-02-12T05:20:11;98.07;;;11.60;;
3911;SDS011;1971;51.778;10.330;2023-02-12T05:22:44;134.83;;;11.93;;
3911;SDS011;1971;51.778;10.330;2023-02-12T05:25:14;117.90;;;12.80;;
3911;SDS011;1971;51.778;10.330;2023-02-12T05:27:44;137.57;;;12.60;;
3911;SDS011;1971;51.778;10.330;2023-02-12T05:30:14;91.27;;;9.20;;
3911;SDS011;1971;51.778;10.330;2023-02-12T05:32:45;94.40;;;10.77;;
3911;SDS011;1971;51.778;10.330;2023-02-12T05:35:15;70.20;;;8.70;;
3911;SDS011;1971;51.778;10.330;2023-02-12T05:37:48;98.67;;;10.10;;
3911;SDS011;1971;51.778;10.330;2023-02-12T05:40:18;110.50;;;12.10;;
3911;SDS011;1971;51.778;10.330;2023-02-12T05:42:48;100.50;;;10.80;;
3911;SDS011;1971;51.778;10.330;2023-02-12T05:45:18;9.30;;;2.60;;
3911;SDS011;1971;51.778;10.330;2023-02-12T05:47:53;151.20;;;12.00;;
3911;SDS011;1971;51.778;10.330;2023-02-12T05:50:23;65.70;;;6.43;;
3911;SDS011;1971;51.778;10.330;2023-02-12T05:53:01;25.03;;;3.70;;
3911;SDS011;1971;51.778;10.330;2023-02-12T05:55:33;62.23;;;7.90;;
3911;SDS011;1971;51.778;10.330;2023-02-12T05:58:04;69.50;;;9.63;;
3911;SDS011;1971;51.778;10.330;2023-02-12T06:00:34;57.83;;;8.00;;
3911;SDS011;1971;51.778;10.330;2023-02-12T06:03:05;80.37;;;10.70;;
3911;SDS011;1971;51.778;10.330;2023-02-12T06:05:36;13.47;;;2.93;;
3911;SDS011;1971;51.778;10.330;2023-02-12T06:08:08;48.83;;;7.40;;
3911;SDS011;1971;51.778;10.330;2023-02-12T06:10:38;162.13;;;14.17;;
3911;SDS011;1971;51.778;10.330;2023-02-12T06:13:08;146.17;;;12.00;;
3911;SDS011;1971;51.778;10.330;2023-02-12T06:15:38;119.93;;;12.50;;
3911;SDS011;1971;51.778;10.330;2023-02-12T06:18:09;46.80;;;6.30;;
3911;SDS011;1971;51.778;10.330;2023-02-12T06:20:39;104.23;;;11.67;;
3911;SDS011;1971;51.778;10.330;2023-02-12T06:23:11;132.53;;;15.47;;
3911;SDS011;1971;51.778;10.330;2023-02-12T06:25:41;121.40;;;12.60;;
3911;SDS011;1971;51.778;10.330;2023-02-12T06:28:11;172.80;;;13.90;;
3911;SDS011;1971;51.778;10.330;2023-02-12T06:30:41;134.13;;;11.90;;
3911;SDS011;1971;51.778;10.330;2023-02-12T06:33:11;147.77;;;15.97;;
3911;SDS011;1971;51.778;10.330;2023-02-12T06:35:41;168.20;;;15.70;;
3911;SDS011;1971;51.778;10.330;2023-02-12T06:38:14;121.37;;;10.93;;
3911;SDS011;1971;51.778;10.330;2023-02-12T06:40:44;105.43;;;10.40;;
3911;SDS011;1971;51.778;10.330;2023-02-12T06:43:14;89.13;;;11.30;;
3911;SDS011;1971;51.778;10.330;2023-02-12T06:45:44;164.10;;;14.50;;
3911;SDS011;1971;51.778;10.330;2023-02-12T06:48:13;165.40;;;16.10;;
3911;SDS011;1971;51.778;10.330;2023-02-12T06:50:43;109.70;;;11.87;;
3911;SDS011;1971;51.778;10.330;2023-02-12T06:53:16;187.57;;;17.77;;
3911;SDS011;1971;51.778;10.330;2023-02-12T06:55:47;96.40;;;10.10;;
3911;SDS011;1971;51.778;10.330;2023-02-12T06:58:17;96.13;;;9.03;;
3911;SDS011;1971;51.778;10.330;2023-02-12T07:00:47;75.53;;;6.40;;
3911;SDS011;1971;51.778;10.330;2023-02-12T07:03:18;107.63;;;8.63;;
3911;SDS011;1971;51.778;10.330;2023-02-12T07:05:48;130.53;;;12.40;;
3911;SDS011;1971;51.778;10.330;2023-02-12T07:08:21;57.53;;;5.73;;
3911;SDS011;1971;51.778;10.330;2023-02-12T07:10:51;39.00;;;4.53;;
3911;SDS011;1971;51.778;10.330;2023-02-12T07:13:21;43.83;;;4.37;;
3911;SDS011;1971;51.778;10.330;2023-02-12T07:15:51;42.27;;;4.30;;
3911;SDS011;1971;51.778;10.330;2023-02-12T07:18:21;75.63;;;5.90;;
3911;SDS011;1971;51.778;10.330;2023-02-12T07:20:53;67.10;;;5.27;;
3911;SDS011;1971;51.778;10.330;2023-02-12T07:23:27;63.80;;;5.60;;
3911;SDS011;1971;51.778;10.330;2023-02-12T07:25:57;43.00;;;5.03;;
3911;SDS011;1971;51.778;10.330;2023-02-12T07:28:30;33.83;;;4.57;;
3911;SDS011;1971;51.778;10.330;2023-02-12T07:31:05;34.03;;;4.23;;
3911;SDS011;1971;51.778;10.330;2023-02-12T07:33:36;33.10;;;4.63;;
3911;SDS011;1971;51.778;10.330;2023-02-12T07:36:07;30.47;;;4.17;;
3911;SDS011;1971;51.778;10.330;2023-02-12T07:38:43;41.20;;;6.37;;
3911;SDS011;1971;51.778;10.330;2023-02-12T07:41:13;29.47;;;4.47;;
3911;SDS011;1971;51.778;10.330;2023-02-12T07:43:46;34.30;;;4.93;;
3911;SDS011;1971;51.778;10.330;2023-02-12T07:46:18;45.37;;;4.33;;
3911;SDS011;1971;51.778;10.330;2023-02-12T07:48:52;38.83;;;6.40;;
3911;SDS011;1971;51.778;10.330;2023-02-12T07:51:23;22.63;;;4.10;;
3911;SDS011;1971;51.778;10.330;2023-02-12T07:53:57;41.17;;;7.90;;
3911;SDS011;1971;51.778;10.330;2023-02-12T07:56:29;56.47;;;10.67;;
3911;SDS011;1971;51.778;10.330;2023-02-12T07:59:01;102.47;;;13.43;;
3911;SDS011;1971;51.778;10.330;2023-02-12T08:01:34;59.40;;;9.40;;
3911;SDS011;1971;51.778;10.330;2023-02-12T08:04:07;52.70;;;7.60;;
3911;SDS011;1971;51.778;10.330;2023-02-12T08:06:39;47.80;;;8.57;;
3911;SDS011;1971;51.778;10.330;2023-02-12T08:09:15;54.77;;;6.80;;
3911;SDS011;1971;51.778;10.330;2023-02-12T08:11:46;43.20;;;6.43;;
3911;SDS011;1971;51.778;10.330;2023-02-12T08:14:18;48.03;;;6.77;;
3911;SDS011;1971;51.778;10.330;2023-02-12T08:16:50;43.93;;;4.83;;
3911;SDS011;1971;51.778;10.330;2023-02-12T08:19:21;48.63;;;6.13;;
3911;SDS011;1971;51.778;10.330;2023-02-12T08:21:52;41.97;;;7.97;;
3911;SDS011;1971;51.778;10.330;2023-02-12T08:24:26;23.20;;;4.00;;
3911;SDS011;1971;51.778;10.330;2023-02-12T08:26:56;21.93;;;4.40;;
3911;SDS011;1971;51.778;10.330;2023-02-12T08:29:27;23.23;;;4.50;;
3911;SDS011;1971;51.778;10.330;2023-02-12T08:32:00;23.13;;;5.77;;
3911;SDS011;1971;51.778;10.330;2023-02-12T08:34:33;41.33;;;10.60;;
3911;SDS011;1971;51.778;10.330;2023-02-12T08:37:04;79.73;;;15.10;;
3911;SDS011;1971;51.778;10.330;2023-02-12T08:39:37;54.27;;;11.50;;
3911;SDS011;1971;51.778;10.330;2023-02-12T08:42:08;27.73;;;6.47;;
3911;SDS011;1971;51.778;10.330;2023-02-12T08:44:38;26.03;;;6.80;;
3911;SDS011;1971;51.778;10.330;2023-02-12T08:47:09;21.57;;;5.63;;
3911;SDS011;1971;51.778;10.330;2023-02-12T08:49:39;41.77;;;6.73;;
3911;SDS011;1971;51.778;10.330;2023-02-12T08:52:09;25.50;;;6.03;;
3911;SDS011;1971;51.778;10.330;2023-02-12T08:54:42;65.50;;;7.47;;
3911;SDS011;1971;51.778;10.330;2023-02-12T08:57:12;39.33;;;6.87;;
3911;SDS011;1971;51.778;10.330;2023-02-12T08:59:42;85.30;;;11.87;;
3911;SDS011;1971;51.778;10.330;2023-02-12T09:02:12;61.97;;;8.33;;
3911;SDS011;1971;51.778;10.330;2023-02-12T09:04:42;17.03;;;3.83;;
3911;SDS011;1971;51.778;10.330;2023-02-12T09:07:12;22.23;;;4.83;;
3911;SDS011;1971;51.778;10.330;2023-02-12T09:09:44;44.07;;;7.30;;
3911;SDS011;1971;51.778;10.330;2023-02-12T09:12:15;48.07;;;8.07;;
3911;SDS011;1971;51.778;10.330;2023-02-12T09:14:45;16.90;;;4.10;;
3911;SDS011;1971;51.778;10.330;2023-02-12T09:17:15;20.57;;;3.97;;
3911;SDS011;1971;51.778;10.330;2023-02-12T09:19:45;10.03;;;3.80;;
3911;SDS011;1971;51.778;10.330;2023-02-12T09:22:15;7.53;;;3.80;;
3911;SDS011;1971;51.778;10.330;2023-02-12T09:24:48;9.33;;;3.40;;
3911;SDS011;1971;51.778;10.330;2023-02-12T09:27:18;6.90;;;2.60;;
3911;SDS011;1971;51.778;10.330;2023-02-12T09:29:48;3.50;;;1.83;;
3911;SDS011;1971;51.778;10.330;2023-02-12T09:32:18;7.90;;;2.70;;
3911;SDS011;1971;51.778;10.330;2023-02-12T09:34:51;17.30;;;3.00;;
3911;SDS011;1971;51.778;10.330;2023-02-12T09:37:21;12.00;;;2.70;;
3911;SDS011;1971;51.778;10.330;2023-02-12T09:39:54;6.53;;;2.50;;
3911;SDS011;1971;51.778;10.330;2023-02-12T09:45:29;12.17;;;2.43;;
3911;SDS011;1971;51.778;10.330;2023-02-12T09:48:05;12.30;;;2.20;;
3911;SDS011;1971;51.778;10.330;2023-02-12T09:50:47;10.47;;;2.13;;
3911;SDS011;1971;51.778;10.330;2023-02-12T09:53:22;8.30;;;2.17;;
3911;SDS011;1971;51.778;10.330;2023-02-12T09:58:39;25.10;;;4.07;;
3911;SDS011;1971;51.778;10.330;2023-02-12T10:01:12;3.53;;;1.93;;
3911;SDS011;1971;51.778;10.330;2023-02-12T10:03:44;5.93;;;2.63;;
3911;SDS011;1971;51.778;10.330;2023-02-12T10:06:17;20.43;;;3.17;;
3911;SDS011;1971;51.778;10.330;2023-02-12T10:08:58;15.30;;;2.60;;
3911;SDS011;1971;51.778;10.330;2023-02-12T10:17:32;80.77;;;6.70;;
3911;SDS011;1971;51.778;10.330;2023-02-12T10:20:20;105.50;;;8.20;;
3911;SDS011;1971;51.778;10.330;2023-02-12T10:23:10;51.40;;;6.47;;
3911;SDS011;1971;51.778;10.330;2023-02-12T10:26:09;83.73;;;6.97;;
3911;SDS011;1971;51.778;10.330;2023-02-12T10:28:53;109.83;;;10.20;;
3911;SDS011;1971;51.778;10.330;2023-02-12T10:31:28;11.17;;;2.87;;
3911;SDS011;1971;51.778;10.330;2023-02-12T10:34:00;7.97;;;2.37;;
3911;SDS011;1971;51.778;10.330;2023-02-12T10:36:41;3.33;;;2.93;;
3911;SDS011;1971;51.778;10.330;2023-02-12T10:39:13;6.03;;;3.03;;
3911;SDS011;1971;51.778;10.330;2023-02-12T10:41:49;3.40;;;2.47;;
3911;SDS011;1971;51.778;10.330;2023-02-12T10:44:27;2.90;;;2.20;;
3911;SDS011;1971;51.778;10.330;2023-02-12T10:46:58;2.40;;;2.20;;
3911;SDS011;1971;51.778;10.330;2023-02-12T10:49:28;2.00;;;1.90;;
3911;SDS011;1971;51.778;10.330;2023-02-12T10:52:08;7.73;;;2.40;;
3911;SDS011;1971;51.778;10.330;2023-02-12T10:54:45;2.60;;;2.40;;
3911;SDS011;1971;51.778;10.330;2023-02-12T10:57:17;3.00;;;2.60;;
3911;SDS011;1971;51.778;10.330;2023-02-12T10:59:53;6.63;;;2.50;;
3911;SDS011;1971;51.778;10.330;2023-02-12T11:02:25;26.50;;;4.30;;
3911;SDS011;1971;51.778;10.330;2023-02-12T11:04:57;10.33;;;2.93;;
3911;SDS011;1971;51.778;10.330;2023-02-12T11:07:28;64.10;;;8.50;;
3911;SDS011;1971;51.778;10.330;2023-02-12T11:10:19;10.40;;;3.63;;
3911;SDS011;1971;51.778;10.330;2023-02-12T11:12:53;39.03;;;4.50;;
3911;SDS011;1971;51.778;10.330;2023-02-12T11:15:27;105.17;;;11.43;;
3911;SDS011;1971;51.778;10.330;2023-02-12T11:18:04;43.90;;;6.57;;
3911;SDS011;1971;51.778;10.330;2023-02-12T11:20:36;12.73;;;4.10;;
3911;SDS011;1971;51.778;10.330;2023-02-12T11:23:21;13.43;;;3.70;;
3911;SDS011;1971;51.778;10.330;2023-02-12T11:25:54;4.57;;;3.10;;
3911;SDS011;1971;51.778;10.330;2023-02-12T11:28:27;3.57;;;3.27;;
3911;SDS011;1971;51.778;10.330;2023-02-12T11:31:02;2.80;;;2.60;;
3911;SDS011;1971;51.778;10.330;2023-02-12T11:34:05;3.30;;;3.00;;
3911;SDS011;1971;51.778;10.330;2023-02-12T11:36:38;3.30;;;3.10;;
3911;SDS011;1971;51.778;10.330;2023-02-12T11:39:16;5.93;;;4.10;;
3911;SDS011;1971;51.778;10.330;2023-02-12T11:41:51;5.10;;;4.40;;
3911;SDS011;1971;51.778;10.330;2023-02-12T11:44:23;3.63;;;3.30;;
3911;SDS011;1971;51.778;10.330;2023-02-12T11:46:58;4.90;;;3.30;;
3911;SDS011;1971;51.778;10.330;2023-02-12T11:49:36;6.23;;;3.93;;
3911;SDS011;1971;51.778;10.330;2023-02-12T11:52:13;6.83;;;4.80;;
3911;SDS011;1971;51.778;10.330;2023-02-12T11:54:49;100.33;;;10.40;;
3911;SDS011;1971;51.778;10.330;2023-02-12T11:57:34;156.37;;;13.10;;
3911;SDS011;1971;51.778;10.330;2023-02-12T12:00:10;143.33;;;13.53;;
3911;SDS011;1971;51.778;10.330;2023-02-12T12:02:54;203.37;;;18.03;;
3911;SDS011;1971;51.778;10.330;2023-02-12T12:05:29;156.20;;;13.40;;
3911;SDS011;1971;51.778;10.330;2023-02-12T12:08:04;121.73;;;11.23;;
3911;SDS011;1971;51.778;10.330;2023-02-12T12:10:43;112.00;;;12.83;;
3911;SDS011;1971;51.778;10.330;2023-02-12T12:13:18;118.13;;;12.93;;
3911;SDS011;1971;51.778;10.330;2023-02-12T12:15:54;75.27;;;8.97;;
3911;SDS011;1971;51.778;10.330;2023-02-12T12:18:45;93.47;;;10.23;;
3911;SDS011;1971;51.778;10.330;2023-02-12T12:21:33;165.10;;;14.87;;
3911;SDS011;1971;51.778;10.330;2023-02-12T12:24:09;173.93;;;13.67;;
3911;SDS011;1971;51.778;10.330;2023-02-12T12:26:44;126.23;;;11.87;;
3911;SDS011;1971;51.778;10.330;2023-02-12T12:29:26;192.47;;;17.37;;
3911;SDS011;1971;51.778;10.330;2023-02-12T12:32:16;237.30;;;20.20;;
3911;SDS011;1971;51.778;10.330;2023-02-12T12:34:50;216.80;;;17.80;;
3911;SDS011;1971;51.778;10.330;2023-02-12T12:37:26;161.57;;;13.97;;
3911;SDS011;1971;51.778;10.330;2023-02-12T12:40:08;98.23;;;11.77;;
3911;SDS011;1971;51.778;10.330;2023-02-12T12:42:54;124.40;;;14.40;;
3911;SDS011;1971;51.778;10.330;2023-02-12T12:48:44;88.57;;;11.30;;
3911;SDS011;1971;51.778;10.330;2023-02-12T12:51:28;96.50;;;11.70;;
3911;SDS011;1971;51.778;10.330;2023-02-12T12:54:12;21.33;;;6.70;;
3911;SDS011;1971;51.778;10.330;2023-02-12T12:56:57;7.57;;;5.87;;
3911;SDS011;1971;51.778;10.330;2023-02-12T12:59:46;7.33;;;5.60;;
3911;SDS011;1971;51.778;10.330;2023-02-12T13:02:31;8.70;;;7.10;;
3911;SDS011;1971;51.778;10.330;2023-02-12T13:05:39;46.43;;;11.10;;
3911;SDS011;1971;51.778;10.330;2023-02-12T13:08:31;160.27;;;18.60;;
3911;SDS011;1971;51.778;10.330;2023-02-12T13:11:34;249.87;;;24.47;;
3911;SDS011;1971;51.778;10.330;2023-02-12T13:14:15;376.60;;;30.53;;
3911;SDS011;1971;51.778;10.330;2023-02-12T13:16:57;178.73;;;18.70;;
3911;SDS011;1971;51.778;10.330;2023-02-12T13:19:37;188.50;;;22.40;;
3911;SDS011;1971;51.778;10.330;2023-02-12T13:22:16;256.97;;;23.90;;
3911;SDS011;1971;51.778;10.330;2023-02-12T13:24:55;137.80;;;18.43;;
3911;SDS011;1971;51.778;10.330;2023-02-12T13:27:31;175.17;;;19.23;;
3911;SDS011;1971;51.778;10.330;2023-02-12T13:30:14;84.13;;;13.27;;
3911;SDS011;1971;51.778;10.330;2023-02-12T13:33:00;87.60;;;14.30;;
3911;SDS011;1971;51.778;10.330;2023-02-12T13:35:36;116.80;;;16.17;;
3911;SDS011;1971;51.778;10.330;2023-02-12T13:38:11;164.47;;;17.50;;
3911;SDS011;1971;51.778;10.330;2023-02-12T13:40:49;163.50;;;21.07;;
3911;SDS011;1971;51.778;10.330;2023-02-12T13:43:26;164.63;;;19.77;;
3911;SDS011;1971;51.778;10.330;2023-02-12T13:46:07;203.13;;;22.37;;
3911;SDS011;1971;51.778;10.330;2023-02-12T13:48:46;121.47;;;19.87;;
3911;SDS011;1971;51.778;10.330;2023-02-12T13:51:25;72.67;;;14.67;;
3911;SDS011;1971;51.778;10.330;2023-02-12T13:54:11;49.27;;;12.90;;
3911;SDS011;1971;51.778;10.330;2023-02-12T13:56:48;66.17;;;18.30;;
3911;SDS011;1971;51.778;10.330;2023-02-12T14:08:01;46.43;;;11.07;;
3911;SDS011;1971;51.778;10.330;2023-02-12T14:10:34;19.43;;;9.63;;
3911;SDS011;1971;51.778;10.330;2023-02-12T14:13:18;14.67;;;7.93;;
3911;SDS011;1971;51.778;10.330;2023-02-12T14:15:51;16.77;;;9.90;;
3911;SDS011;1971;51.778;10.330;2023-02-12T14:18:31;17.60;;;9.83;;
3911;SDS011;1971;51.778;10.330;2023-02-12T14:27:03;14.50;;;10.00;;
3911;SDS011;1971;51.778;10.330;2023-02-12T14:35:32;19.40;;;11.20;;
3911;SDS011;1971;51.778;10.330;2023-02-12T14:38:39;23.63;;;10.60;;
3911;SDS011;1971;51.778;10.330;2023-02-12T14:41:14;14.23;;;9.23;;
3911;SDS011;1971;51.778;10.330;2023-02-12T14:50:14;13.53;;;9.57;;
3911;SDS011;1971;51.778;10.330;2023-02-12T14:52:52;9.83;;;7.10;;
3911;SDS011;1971;51.778;10.330;2023-02-12T14:55:27;14.33;;;9.27;;
3911;SDS011;1971;51.778;10.330;2023-02-12T14:58:01;11.07;;;8.20;;
3911;SDS011;1971;51.778;10.330;2023-02-12T15:00:35;14.33;;;8.57;;
3911;SDS011;1971;51.778;10.330;2023-02-12T15:03:18;20.23;;;10.27;;
3911;SDS011;1971;51.778;10.330;2023-02-12T15:05:56;18.57;;;10.47;;
3911;SDS011;1971;51.778;10.330;2023-02-12T15:08:35;13.53;;;8.47;;
3911;SDS011;1971;51.778;10.330;2023-02-12T15:11:19;14.23;;;8.27;;
3911;SDS011;1971;51.778;10.330;2023-02-12T15:13:54;21.90;;;10.27;;
3911;SDS011;1971;51.778;10.330;2023-02-12T15:16:33;19.93;;;10.83;;
3911;SDS011;1971;51.778;10.330;2023-02-12T15:19:12;65.67;;;14.43;;
3911;SDS011;1971;51.778;10.330;2023-02-12T15:21:52;75.87;;;12.73;;
3911;SDS011;1971;51.778;10.330;2023-02-12T15:24:23;54.43;;;12.17;;
3911;SDS011;1971;51.778;10.330;2023-02-12T15:26:58;77.27;;;18.20;;
3911;SDS011;1971;51.778;10.330;2023-02-12T15:29:29;174.17;;;22.33;;
3911;SDS011;1971;51.778;10.330;2023-02-12T15:32:05;159.93;;;21.63;;
3911;SDS011;1971;51.778;10.330;2023-02-12T15:34:37;226.63;;;22.77;;
3911;SDS011;1971;51.778;10.330;2023-02-12T15:37:14;135.87;;;16.73;;
3911;SDS011;1971;51.778;10.330;2023-02-12T15:39:50;95.77;;;14.83;;
3911;SDS011;1971;51.778;10.330;2023-02-12T15:42:24;132.47;;;17.57;;
3911;SDS011;1971;51.778;10.330;2023-02-12T15:47:59;141.10;;;18.00;;
3911;SDS011;1971;51.778;10.330;2023-02-12T15:50:33;160.97;;;18.30;;
3911;SDS011;1971;51.778;10.330;2023-02-12T15:53:15;147.70;;;17.00;;
3911;SDS011;1971;51.778;10.330;2023-02-12T15:55:46;79.33;;;14.60;;
3911;SDS011;1971;51.778;10.330;2023-02-12T15:58:19;134.73;;;18.50;;
3911;SDS011;1971;51.778;10.330;2023-02-12T16:00:52;315.40;;;26.17;;
3911;SDS011;1971;51.778;10.330;2023-02-12T16:03:23;209.03;;;21.73;;
3911;SDS011;1971;51.778;10.330;2023-02-12T16:05:56;151.03;;;17.73;;
3911;SDS011;1971;51.778;10.330;2023-02-12T16:08:33;172.60;;;20.73;;
3911;SDS011;1971;51.778;10.330;2023-02-12T16:11:04;372.03;;;29.37;;
3911;SDS011;1971;51.778;10.330;2023-02-12T16:13:42;196.30;;;19.30;;
3911;SDS011;1971;51.778;10.330;2023-02-12T16:16:16;214.63;;;21.63;;
3911;SDS011;1971;51.778;10.330;2023-02-12T16:21:42;112.30;;;15.23;;